x

South Hatteras - 225 South Of Cape Hatteras (41002) Wave Buoy

8:50pm - Fri 27th May 2016 All times are EDT. -4 hours from GMT.

  • Sig Wave height 5.6ft
  • Swell Direction
  • Peak Period 6s
  • Average Period 5s
  • Wind
    25mph, 31mph gusts
  • Sea Temp 77°f
  • Air Temp 78°f
  • Sea Pressure 1017.1mb
  • South Hatteras - 225 South Of Cape Hatteras
  • South Hatteras - 225 South Of Cape Hatteras

More Historic Weather Station data

Upgrade to MSW Pro to gain access to the past 30 days of data for over 8000 Wavebouys and Weather Stations around the globe.

Join Pro

Comparision Forecast

View Surf forecast
   
Fri 05/27 8:50pm 5.5ft 6s 5s 25 31 mph 1017.1mb 77f 78f
7:50pm 5ft 6s 5s 22 25 mph 1017.3mb 78f 77f
6:50pm 5ft 5s 5s 22 25 mph 1017mb 78f 77f
5:50pm 5ft 5s 4s 22 27 mph 1017.1mb 78f 77f
4:50pm 4.5ft 5s 4s 22 27 mph 1017.6mb 78f 78f
3:50pm 4.5ft 5s 4s 22 27 mph 1017.9mb 78f 77f
2:50pm 4.5ft 5s 4s 22 25 mph 1018.2mb 78f 77f
1:50pm 4.5ft 9s 4s 18 22 mph 1018.8mb 78f 77f
12:50pm 4ft 5s 4s 20 25 mph 1019.1mb 78f 77f
11:50am 4ft 4s 4s 18 20 mph 1019.4mb 78f 77f
10:50am 3.5ft 7s 4s 16 22 mph 1019.7mb 78f 73f
9:50am 3.5ft 4s 4s 16 20 mph 1019.7mb 78f 74f
8:50am 3.5ft 4s 4s 18 22 mph 1019.4mb 78f 74f
7:50am 3.5ft 8s 4s 16 20 mph 1019.2mb 77f 73f
6:50am 3ft 5s 4s 22 29 mph 1018.8mb 77f 76f
5:50am 2.5ft 5s 4s 16 18 mph 1018.7mb 77f 76f
4:50am 3ft 7s 4s 16 18 mph 1018.4mb 77f 76f
3:50am 2.5ft 8s 4s 16 18 mph 1018.6mb 77f 76f
2:50am 2.5ft 8s 4s 13 16 mph 1019.1mb 77f 76f
1:50am 2.5ft 7s 4s 13 18 mph 1019.7mb 77f 76f
12:50am 3ft 7s 4s 16 18 mph 1020mb 77f 76f
Thu 05/26 11:50pm 3ft 5s 4s 13 18 mph 1020.4mb 78f 76f
10:50pm 2.5ft 5s 4s 16 18 mph 1020.6mb 78f 76f
9:50pm 2.5ft 11s 4s 16 18 mph 1020.7mb 78f 76f
8:50pm 2.5ft 4s 4s 16 18 mph 1020.8mb 78f 76f
6:50pm 3ft 4s 4s 18 20 mph 1020.6mb 78f 76f
5:50pm 3ft 4s 4s 18 20 mph 1020.7mb 78f 76f
4:50pm 2.5ft 3s 4s 16 20 mph 1021.2mb 78f 76f
3:50pm 2.5ft 8s 4s 16 18 mph 1021.4mb 78f 76f
2:50pm 2.5ft 7s 4s 16 18 mph 1021.6mb 78f 76f
1:50pm 2.5ft 7s 4s 16 20 mph 1022.1mb 78f 76f
12:50pm 2.5ft 8s 4s 13 18 mph 1022.5mb 78f 75f
11:50am 2.5ft 8s 4s 13 18 mph 1022.8mb 78f 75f
10:50am 2.5ft 9s 4s 13 16 mph 1022.8mb 78f 75f
9:50am 2.5ft 8s 5s 13 16 mph 1023.1mb 78f 75f
8:50am 2.5ft 7s 5s 11 13 mph 1023.4mb 78f 75f
7:50am 2.5ft 7s 5s 11 16 mph 1023mb 78f 75f
6:50am 2.5ft 8s 5s 11 16 mph 1022.8mb 78f 75f
5:50am 2.5ft 7s 5s 11 16 mph 1022.6mb 78f 74f
4:50am 2.5ft 9s 5s 11 13 mph 1022.8mb 78f 74f
3:50am 2.5ft 9s 5s 11 13 mph 1023mb 78f 74f
2:50am 2.5ft 8s 5s 11 13 mph 1023.2mb 78f 75f
1:50am 2ft 8s 5s 13 18 mph 1023.1mb 78f 75f
12:50am 2ft 10s 5s 11 16 mph 1023.8mb 78f 75f
Wed 05/25 11:50pm 2.5ft 9s 5s 11 16 mph 1023.8mb 78f 75f
10:50pm 2.5ft 9s 6s 11 16 mph 1023.8mb 78f 75f
9:50pm 2ft 8s 6s 11 13 mph 1023.7mb 78f 75f
8:50pm 2.5ft 8s 6s 9 13 mph 1023.5mb 78f 75f
7:50pm 2.5ft 9s 6s 9 11 mph 1023.2mb 79f 75f
6:50pm 2.5ft 7s 6s 9 11 mph 1022.8mb 79f 75f
5:50pm 2.5ft 7s 6s 7 9 mph 1023mb 79f 75f
4:50pm 2.5ft 9s 6s 7 11 mph 1023.3mb 79f 75f
3:50pm 2.5ft 7s 6s 9 11 mph 1023.7mb 79f 75f
2:50pm 3ft 7s 6s 11 13 mph 1023.9mb 79f 75f
1:50pm 3ft 8s 6s 9 11 mph 1024.2mb 79f 74f
12:50pm 3ft 8s 6s 9 11 mph 1024.7mb 79f 74f
11:50am 3ft 7s 6s 9 11 mph 1025.2mb 78f 74f
10:50am 3.5ft 9s 7s 9 11 mph 1025.1mb 78f 74f
9:50am 3.5ft 9s 7s 7 11 mph 1024.5mb 78f 74f
8:50am 3.5ft 8s 6s 7 9 mph 1024.2mb 78f 74f
7:50am 4ft 8s 7s 9 11 mph 1023.8mb 78f 74f
6:50am 4ft 8s 7s 7 9 mph 1023.6mb 78f 74f
5:50am 4ft 8s 7s 4 7 mph 1022.8mb 78f 73f
4:50am 4ft 8s 7s 7 9 mph 1022.6mb 78f 73f
3:50am 3.5ft 9s 7s 7 9 mph 1022.4mb 78f 73f
2:50am 4.5ft 8s 7s 7 9 mph 1022.4mb 78f 73f
1:50am 4.5ft 8s 7s 7 11 mph 1022.3mb 78f 73f
12:50am 4.5ft 9s 7s 2 4 mph 1022.7mb 78f 73f
Tue 05/24 11:50pm 4.5ft 10s 7s 2 7 mph 1022.9mb 78f 73f
10:50pm 4.5ft 9s 7s 4 7 mph 1022.5mb 78f 73f
9:50pm 4.5ft 9s 7s 4 7 mph 1021.7mb 78f 73f
8:50pm 4.5ft 9s 7s 4 9 mph 1021.2mb 78f 73f
7:50pm 4.5ft 9s 7s 7 9 mph 1021mb 78f 73f
6:50pm 4.5ft 8s 6s 7 9 mph 1020.7mb 78f 73f
5:50pm 5ft 9s 7s 7 11 mph 1020.6mb 78f 73f
4:50pm 4.5ft 8s 6s 7 9 mph 1020.5mb 78f 73f
3:50pm 5.5ft 10s 7s 9 11 mph 1020.7mb 78f 73f
2:50pm 5ft 9s 6s 9 13 mph 1021mb 78f 73f
1:50pm 5ft 10s 7s 11 16 mph 1020.8mb 78f 73f
12:50pm 5ft 9s 6s 13 18 mph 1020.6mb 78f 73f
11:50am 4.5ft 10s 6s 11 16 mph 1020.4mb 78f 74f
10:50am 5ft 6s 6s 9 13 mph 1020.1mb 78f 73f
9:50am 4.5ft 6s 6s 13 18 mph 1019.6mb 78f 74f
8:50am 4.5ft 6s 6s 7 11 mph 1019mb 77f 73f
7:50am 4.5ft 6s 6s 13 18 mph 1018.1mb 77f 74f
6:50am 4.5ft 6s 6s 13 18 mph 1017.3mb 77f 73f
5:50am 4.5ft 7s 5s 11 16 mph 1016.8mb 77f 73f
4:50am 4.5ft 6s 6s 11 16 mph 1016.6mb 77f 73f
3:50am 4.5ft 8s 5s 13 16 mph 1016.3mb 77f 73f
2:50am 4ft 6s 5s 16 20 mph 1016mb 77f 73f